createdAt,value
2023-03-25T00:00:10.411Z,86.12
2023-03-25T00:01:10.436Z,86.32
2023-03-25T00:02:10.441Z,86.51
2023-03-25T00:03:10.437Z,86.98
2023-03-25T00:04:10.381Z,86.69
2023-03-25T00:05:10.387Z,86.98
2023-03-25T00:06:10.379Z,86.88
2023-03-25T00:07:10.377Z,86.69
2023-03-25T00:08:10.389Z,86.88
2023-03-25T00:09:10.383Z,86.22
2023-03-25T00:10:10.355Z,86.41
2023-03-25T00:11:10.377Z,86.88
2023-03-25T00:12:10.414Z,86.41
2023-03-25T00:13:10.377Z,86.12
2023-03-25T00:14:10.328Z,86.88
2023-03-25T00:15:10.331Z,86.79
2023-03-25T00:16:10.470Z,86.51
2023-03-25T00:17:10.336Z,86.60
2023-03-25T00:18:10.339Z,86.51
2023-03-25T00:19:10.335Z,87.46
2023-03-25T00:20:10.396Z,89.84
2023-03-25T00:21:10.302Z,91.84
2023-03-25T00:22:10.305Z,91.98
2023-03-25T00:23:10.295Z,90.84
2023-03-25T00:24:10.300Z,89.60
2023-03-25T00:25:10.328Z,88.26
2023-03-25T00:26:10.317Z,87.31
2023-03-25T00:27:10.281Z,86.45
2023-03-25T00:28:10.299Z,85.93
2023-03-25T00:29:10.259Z,85.84
2023-03-25T00:30:10.263Z,85.84
2023-03-25T00:31:10.277Z,86.03
2023-03-25T00:32:10.239Z,86.32
2023-03-25T00:33:10.244Z,86.41
2023-03-25T00:34:10.233Z,86.32
2023-03-25T00:35:10.240Z,86.12
2023-03-25T00:36:10.264Z,86.69
2023-03-25T00:37:10.215Z,86.51
2023-03-25T00:38:10.207Z,87.17
2023-03-25T00:39:10.207Z,87.17
2023-03-25T00:40:10.208Z,87.07
2023-03-25T00:41:10.216Z,87.17
2023-03-25T00:42:10.215Z,87.17
2023-03-25T00:43:10.203Z,86.98
2023-03-25T00:44:10.214Z,87.27
2023-03-25T00:45:10.179Z,87.55
2023-03-25T00:46:10.189Z,87.13
2023-03-25T00:47:10.190Z,87.70
2023-03-25T00:48:10.181Z,87.70
2023-03-25T00:49:10.155Z,88.18
2023-03-25T00:50:10.158Z,88.41
2023-03-25T00:51:10.403Z,88.18
2023-03-25T00:52:10.142Z,87.89
2023-03-25T00:53:10.141Z,87.89
2023-03-25T00:54:10.124Z,87.89
2023-03-25T00:55:10.133Z,88.27
2023-03-25T00:56:10.110Z,88.37
2023-03-25T00:57:10.147Z,88.18
2023-03-25T00:58:10.107Z,87.79
2023-03-25T00:59:10.109Z,88.18
2023-03-25T01:00:10.149Z,88.08
2023-03-25T01:01:10.188Z,87.98
2023-03-25T01:02:10.085Z,88.56
2023-03-25T01:03:10.200Z,88.56
2023-03-25T01:04:10.093Z,88.18
2023-03-25T01:05:10.078Z,88.27
2023-03-25T01:06:10.071Z,88.27
2023-03-25T01:07:10.196Z,88.46
2023-03-25T01:08:10.060Z,88.37
2023-03-25T01:09:10.058Z,88.65
2023-03-25T01:10:10.083Z,88.65
2023-03-25T01:11:10.034Z,88.46
2023-03-25T01:12:10.070Z,88.65
2023-03-25T01:13:10.026Z,88.65
2023-03-25T01:14:10.030Z,88.65
2023-03-25T01:15:10.026Z,88.46
2023-03-25T01:16:10.031Z,88.65
2023-03-25T01:17:10.031Z,88.93
2023-03-25T01:18:10.011Z,88.84
2023-03-25T01:19:10.054Z,88.84
2023-03-25T01:20:10.068Z,89.51
2023-03-25T01:21:09.997Z,89.51
2023-03-25T01:22:09.980Z,89.32
2023-03-25T01:23:09.992Z,89.61
2023-03-25T01:24:09.999Z,89.03
2023-03-25T01:25:09.978Z,89.41
2023-03-25T01:26:09.980Z,89.41
2023-03-25T01:27:09.953Z,89.32
2023-03-25T01:28:09.944Z,89.41
2023-03-25T01:29:09.952Z,88.65
2023-03-25T01:30:09.937Z,89.41
2023-03-25T01:31:09.974Z,89.32
2023-03-25T01:32:09.933Z,89.32
2023-03-25T01:33:10.031Z,89.41
2023-03-25T01:34:09.917Z,88.56
2023-03-25T01:35:09.912Z,88.93
2023-03-25T01:36:10.007Z,89.51
2023-03-25T01:37:09.915Z,89.41
2023-03-25T01:38:09.900Z,89.03
2023-03-25T01:39:09.920Z,88.84
2023-03-25T01:40:09.905Z,89.32
2023-03-25T01:41:09.896Z,89.41
2023-03-25T01:42:09.889Z,89.41
2023-03-25T01:43:09.890Z,88.65
2023-03-25T01:44:09.902Z,89.13
2023-03-25T01:45:09.856Z,88.84
2023-03-25T01:46:09.883Z,89.13
2023-03-25T01:47:09.846Z,89.22
2023-03-25T01:48:09.848Z,88.84
2023-03-25T01:49:09.844Z,89.03
2023-03-25T01:50:09.837Z,88.56
2023-03-25T01:51:09.825Z,88.27
2023-03-25T01:52:09.814Z,88.65
2023-03-25T01:53:09.831Z,88.93
2023-03-25T01:54:09.842Z,89.13
2023-03-25T01:55:09.815Z,89.13
2023-03-25T01:56:09.807Z,89.03
2023-03-25T01:57:09.894Z,89.13
2023-03-25T01:58:09.808Z,89.03
2023-03-25T01:59:09.812Z,88.99
2023-03-25T02:00:09.776Z,88.99
2023-03-25T02:01:09.787Z,89.03
2023-03-25T02:02:09.791Z,89.37
2023-03-25T02:03:09.790Z,89.32
2023-03-25T02:04:09.768Z,88.84
2023-03-25T02:05:09.748Z,88.84
2023-03-25T02:06:09.761Z,89.32
2023-03-25T02:07:09.735Z,89.51
2023-03-25T02:08:09.778Z,89.32
2023-03-25T02:09:09.732Z,89.13
2023-03-25T02:10:09.762Z,89.18
2023-03-25T02:11:09.723Z,89.37
2023-03-25T02:12:09.717Z,89.51
2023-03-25T02:13:09.722Z,89.03
2023-03-25T02:14:09.713Z,89.70
2023-03-25T02:15:09.704Z,89.98
2023-03-25T02:16:09.718Z,89.79
2023-03-25T02:17:09.682Z,89.98
2023-03-25T02:18:09.685Z,89.89
2023-03-25T02:19:09.674Z,89.89
2023-03-25T02:20:09.685Z,89.70
2023-03-25T02:21:09.675Z,89.79
2023-03-25T02:22:09.669Z,89.51
2023-03-25T02:23:09.659Z,89.89
2023-03-25T02:24:09.651Z,89.89
2023-03-25T02:25:09.635Z,89.98
2023-03-25T02:26:09.649Z,89.98
2023-03-25T02:27:09.633Z,89.79
2023-03-25T02:28:09.629Z,89.89
2023-03-25T02:29:09.623Z,89.98
2023-03-25T02:30:09.641Z,89.03
2023-03-25T02:31:09.621Z,89.32
2023-03-25T02:32:09.681Z,89.61
2023-03-25T02:33:09.633Z,89.32
2023-03-25T02:34:09.590Z,89.51
2023-03-25T02:35:09.598Z,89.61
2023-03-25T02:36:09.626Z,89.61
2023-03-25T02:37:09.575Z,89.32
2023-03-25T02:38:09.589Z,89.41
2023-03-25T02:39:09.588Z,89.61
2023-03-25T02:40:09.556Z,89.41
2023-03-25T02:41:09.555Z,89.41
2023-03-25T02:42:09.558Z,89.41
2023-03-25T02:43:09.545Z,89.13
2023-03-25T02:44:09.552Z,89.98
2023-03-25T02:45:09.532Z,89.98
2023-03-25T02:46:09.544Z,89.98
2023-03-25T02:47:09.542Z,89.79
2023-03-25T02:48:09.550Z,89.98
2023-03-25T02:49:09.522Z,89.89
2023-03-25T02:50:09.506Z,89.03
2023-03-25T02:51:09.512Z,89.32
2023-03-25T02:52:09.497Z,89.32
2023-03-25T02:53:09.504Z,89.41
2023-03-25T02:54:09.520Z,89.22
2023-03-25T02:55:09.495Z,89.13
2023-03-25T02:56:09.493Z,89.70
2023-03-25T02:57:09.665Z,89.61
2023-03-25T02:58:09.465Z,89.98
2023-03-25T02:59:09.464Z,89.41
2023-03-25T03:00:09.495Z,89.22
2023-03-25T03:01:09.464Z,89.22
2023-03-25T03:02:09.489Z,89.41
2023-03-25T03:03:09.520Z,89.79
2023-03-25T03:04:09.448Z,89.89
2023-03-25T03:05:09.439Z,90.17
2023-03-25T03:06:09.433Z,89.98
2023-03-25T03:07:09.426Z,89.70
2023-03-25T03:08:09.427Z,89.98
2023-03-25T03:09:09.405Z,89.79
2023-03-25T03:10:09.418Z,89.03
2023-03-25T03:11:09.411Z,89.13
2023-03-25T03:12:09.409Z,89.22
2023-03-25T03:13:09.399Z,89.79
2023-03-25T03:14:09.396Z,89.51
2023-03-25T03:15:09.378Z,89.89
2023-03-25T03:16:09.365Z,89.70
2023-03-25T03:17:09.497Z,89.70
2023-03-25T03:18:09.469Z,90.08
2023-03-25T03:19:09.379Z,89.79
2023-03-25T03:20:09.368Z,89.98
2023-03-25T03:21:09.405Z,89.79
2023-03-25T03:22:09.341Z,89.70
2023-03-25T03:23:09.326Z,89.70
2023-03-25T03:24:09.335Z,89.79
2023-03-25T03:25:09.329Z,90.56
2023-03-25T03:26:09.348Z,90.08
2023-03-25T03:27:09.317Z,90.36
2023-03-25T03:28:09.324Z,90.75
2023-03-25T03:29:09.313Z,91.31
2023-03-25T03:30:09.332Z,91.60
2023-03-25T03:31:09.349Z,91.70
2023-03-25T03:32:09.310Z,92.36
2023-03-25T03:33:09.357Z,92.65
2023-03-25T03:34:09.282Z,93.03
2023-03-25T03:35:09.269Z,93.32
2023-03-25T03:36:09.264Z,93.41
2023-03-25T03:37:09.263Z,93.37
2023-03-25T03:38:09.276Z,94.03
2023-03-25T03:39:09.254Z,94.74
2023-03-25T03:40:09.254Z,94.42
2023-03-25T03:41:09.242Z,94.98
2023-03-25T03:42:09.236Z,95.27
2023-03-25T03:43:09.243Z,95.08
2023-03-25T03:44:09.232Z,95.17
2023-03-25T03:45:09.213Z,95.75
2023-03-25T03:46:09.239Z,95.56
2023-03-25T03:47:09.214Z,95.75
2023-03-25T03:48:09.232Z,95.94
2023-03-25T03:49:09.212Z,96.70
2023-03-25T03:50:09.208Z,96.60
2023-03-25T03:51:09.184Z,96.70
2023-03-25T03:52:09.216Z,96.79
2023-03-25T03:53:09.177Z,96.79
2023-03-25T03:54:09.179Z,96.70
2023-03-25T03:55:09.161Z,97.17
2023-03-25T03:56:09.185Z,97.65
2023-03-25T03:57:09.234Z,97.17
2023-03-25T03:58:09.144Z,97.93
2023-03-25T03:59:09.158Z,97.74
2023-03-25T04:00:09.150Z,97.36
2023-03-25T04:01:09.138Z,97.55
2023-03-25T04:02:09.234Z,97.46
2023-03-25T04:03:09.216Z,97.17
2023-03-25T04:04:09.181Z,97.27
2023-03-25T04:05:09.125Z,97.17
2023-03-25T04:06:09.123Z,97.46
2023-03-25T04:07:09.101Z,97.27
2023-03-25T04:08:09.107Z,97.08
2023-03-25T04:09:09.091Z,97.74
2023-03-25T04:10:09.098Z,97.65
2023-03-25T04:11:09.072Z,97.74
2023-03-25T04:12:09.067Z,97.65
2023-03-25T04:13:09.096Z,97.27
2023-03-25T04:14:09.070Z,97.74
2023-03-25T04:15:09.056Z,97.65
2023-03-25T04:16:09.106Z,98.03
2023-03-25T04:17:09.042Z,98.22
2023-03-25T04:18:09.059Z,98.50
2023-03-25T04:19:09.032Z,98.32
2023-03-25T04:20:09.069Z,98.60
2023-03-25T04:21:09.023Z,98.03
2023-03-25T04:22:09.033Z,98.79
2023-03-25T04:23:09.003Z,98.88
2023-03-25T04:24:09.018Z,98.32
2023-03-25T04:25:09.013Z,98.13
2023-03-25T04:26:08.994Z,98.13
2023-03-25T04:27:08.991Z,98.32
2023-03-25T04:28:08.982Z,98.13
2023-03-25T04:29:08.976Z,98.13
2023-03-25T04:30:09.015Z,98.60
2023-03-25T04:31:08.986Z,98.41
2023-03-25T04:32:08.973Z,98.22
2023-03-25T04:33:08.975Z,98.41
2023-03-25T04:34:08.957Z,98.41
2023-03-25T04:35:08.941Z,98.32
2023-03-25T04:36:08.971Z,98.32
2023-03-25T04:37:08.950Z,98.22
2023-03-25T04:38:08.931Z,98.32
2023-03-25T04:39:08.915Z,98.50
2023-03-25T04:40:08.910Z,98.13
2023-03-25T04:41:08.949Z,98.03
2023-03-25T04:42:08.911Z,97.65
2023-03-25T04:43:08.920Z,97.65
2023-03-25T04:44:08.906Z,97.17
2023-03-25T04:45:08.882Z,97.65
2023-03-25T04:46:08.965Z,97.65
2023-03-25T04:47:08.889Z,97.36
2023-03-25T04:48:08.876Z,97.84
2023-03-25T04:49:08.877Z,98.13
2023-03-25T04:50:08.879Z,97.65
2023-03-25T04:51:08.891Z,97.74
2023-03-25T04:52:08.850Z,97.84
2023-03-25T04:53:08.859Z,97.36
2023-03-25T04:54:08.894Z,97.17
2023-03-25T04:55:08.837Z,97.36
2023-03-25T04:56:08.828Z,96.98
2023-03-25T04:57:08.854Z,97.27
2023-03-25T04:58:08.827Z,96.60
2023-03-25T04:59:08.813Z,96.79
2023-03-25T05:00:08.817Z,96.70
2023-03-25T05:01:08.829Z,96.70
2023-03-25T05:02:08.799Z,96.79
2023-03-25T05:03:08.789Z,96.98
2023-03-25T05:04:08.791Z,96.70
2023-03-25T05:05:08.778Z,96.60
2023-03-25T05:06:08.797Z,96.60
2023-03-25T05:07:08.783Z,96.89
2023-03-25T05:08:08.758Z,96.98
2023-03-25T05:09:08.748Z,97.36
2023-03-25T05:10:08.759Z,96.79
2023-03-25T05:11:08.744Z,96.51
2023-03-25T05:12:08.740Z,96.89
2023-03-25T05:13:08.725Z,96.70
2023-03-25T05:14:08.728Z,96.70
2023-03-25T05:15:08.722Z,96.51
2023-03-25T05:16:08.735Z,96.70
2023-03-25T05:17:08.750Z,96.79
2023-03-25T05:18:08.696Z,96.41
2023-03-25T05:19:08.698Z,96.60
2023-03-25T05:20:08.689Z,95.94
2023-03-25T05:21:08.694Z,95.75
2023-03-25T05:22:08.688Z,95.75
2023-03-25T05:23:08.674Z,96.03
2023-03-25T05:24:08.667Z,95.56
2023-03-25T05:25:08.658Z,95.94
2023-03-25T05:26:08.665Z,95.65
2023-03-25T05:27:08.650Z,95.75
2023-03-25T05:28:08.639Z,95.56
2023-03-25T05:29:08.736Z,95.65
2023-03-25T05:30:08.776Z,95.84
2023-03-25T05:31:08.651Z,95.94
2023-03-25T05:32:08.689Z,96.12
2023-03-25T05:33:08.645Z,95.84
2023-03-25T05:34:08.639Z,95.56
2023-03-25T05:35:08.617Z,95.46
2023-03-25T05:36:08.710Z,95.75
2023-03-25T05:37:08.610Z,95.27
2023-03-25T05:38:08.588Z,95.27
2023-03-25T05:39:08.630Z,95.75
2023-03-25T05:40:15.074Z,96.12
2023-03-25T05:41:08.592Z,95.36
2023-03-25T05:42:08.587Z,96.12
2023-03-25T05:43:08.573Z,95.36
2023-03-25T05:44:08.584Z,95.27
2023-03-25T05:45:08.545Z,95.94
2023-03-25T05:46:08.646Z,95.27
2023-03-25T05:47:08.540Z,95.27
2023-03-25T05:48:08.599Z,95.46
2023-03-25T05:49:08.533Z,95.56
2023-03-25T05:50:08.611Z,95.17
2023-03-25T05:51:08.510Z,95.08
2023-03-25T05:52:08.510Z,94.98
2023-03-25T05:53:08.498Z,94.79
2023-03-25T05:54:08.523Z,94.98
2023-03-25T05:55:08.500Z,95.56
2023-03-25T05:56:08.493Z,95.08
2023-03-25T05:57:08.593Z,94.98
2023-03-25T05:58:08.491Z,94.70
2023-03-25T05:59:08.555Z,95.27
2023-03-25T06:00:08.502Z,94.70
2023-03-25T06:01:17.039Z,94.70
2023-03-25T06:02:08.536Z,94.79
2023-03-25T06:03:08.852Z,94.60
2023-03-25T06:04:08.533Z,94.98
2023-03-25T06:05:08.440Z,94.79
2023-03-25T06:06:08.439Z,94.42
2023-03-25T06:07:08.432Z,94.51
2023-03-25T06:08:08.482Z,94.51
2023-03-25T06:09:08.418Z,94.13
2023-03-25T06:10:08.419Z,93.84
2023-03-25T06:11:08.410Z,93.94
2023-03-25T06:12:08.426Z,94.03
2023-03-25T06:13:08.433Z,93.94
2023-03-25T06:14:08.394Z,93.74
2023-03-25T06:15:08.388Z,93.18
2023-03-25T06:16:08.422Z,93.37
2023-03-25T06:17:08.384Z,93.74
2023-03-25T06:18:08.414Z,93.37
2023-03-25T06:19:08.367Z,93.27
2023-03-25T06:20:08.397Z,93.27
2023-03-25T06:21:08.369Z,93.08
2023-03-25T06:22:08.357Z,93.08
2023-03-25T06:23:08.340Z,93.27
2023-03-25T06:24:08.342Z,93.37
2023-03-25T06:25:08.342Z,92.41
2023-03-25T06:26:08.350Z,92.32
2023-03-25T06:27:08.332Z,91.94
2023-03-25T06:28:08.324Z,92.41
2023-03-25T06:29:08.313Z,92.51
2023-03-25T06:30:08.313Z,92.32
2023-03-25T06:31:08.351Z,92.03
2023-03-25T06:32:08.300Z,91.84
2023-03-25T06:33:08.289Z,91.94
2023-03-25T06:34:08.351Z,92.13
2023-03-25T06:35:08.322Z,92.13
2023-03-25T06:36:08.346Z,92.41
2023-03-25T06:37:08.286Z,92.41
2023-03-25T06:38:08.479Z,92.41
2023-03-25T06:39:08.288Z,92.55
2023-03-25T06:40:08.324Z,92.74
2023-03-25T06:41:08.273Z,92.27
2023-03-25T06:42:08.249Z,91.70
2023-03-25T06:43:08.241Z,91.51
2023-03-25T06:44:08.253Z,91.99
2023-03-25T06:45:08.251Z,91.79
2023-03-25T06:46:08.293Z,91.70
2023-03-25T06:47:08.222Z,91.89
2023-03-25T06:48:08.210Z,92.08
2023-03-25T06:49:08.203Z,91.60
2023-03-25T06:50:08.206Z,91.60
2023-03-25T06:51:08.198Z,91.79
2023-03-25T06:52:08.207Z,91.89
2023-03-25T06:53:08.232Z,91.89
2023-03-25T06:54:08.186Z,92.36
2023-03-25T06:55:08.193Z,91.99
2023-03-25T06:56:08.186Z,91.89
2023-03-25T06:57:08.216Z,92.18
2023-03-25T06:58:08.238Z,92.08
2023-03-25T06:59:08.155Z,91.41
2023-03-25T07:00:08.189Z,91.89
2023-03-25T07:01:08.189Z,91.89
2023-03-25T07:02:08.194Z,91.79
2023-03-25T07:03:08.207Z,91.60
2023-03-25T07:04:08.174Z,91.60
2023-03-25T07:05:08.208Z,91.79
2023-03-25T07:06:08.160Z,91.84
2023-03-25T07:07:08.134Z,91.46
2023-03-25T07:08:08.130Z,90.79
2023-03-25T07:09:08.121Z,90.70
2023-03-25T07:10:08.105Z,89.75
2023-03-25T07:11:08.177Z,89.26
2023-03-25T07:12:09.176Z,88.74
2023-03-25T07:13:08.104Z,87.79
2023-03-25T07:14:08.096Z,87.02
2023-03-25T07:15:08.136Z,87.02
2023-03-25T07:16:08.213Z,86.74
2023-03-25T07:17:08.086Z,86.45
2023-03-25T07:18:08.174Z,85.83
2023-03-25T07:19:08.109Z,85.83
2023-03-25T07:20:09.591Z,85.35
2023-03-25T07:21:08.088Z,85.16
2023-03-25T07:22:08.093Z,84.59
2023-03-25T07:23:08.097Z,83.73
2023-03-25T07:24:08.121Z,83.16
2023-03-25T07:25:08.093Z,83.25
2023-03-25T07:26:08.145Z,82.78
2023-03-25T07:27:08.103Z,82.68
2023-03-25T07:28:08.112Z,81.15
2023-03-25T07:29:08.128Z,81.58
2023-03-25T07:30:08.144Z,81.29
2023-03-25T07:31:08.234Z,80.33
2023-03-25T07:32:08.112Z,80.43
2023-03-25T07:33:08.112Z,80.57
2023-03-25T07:34:08.144Z,79.43
2023-03-25T07:35:08.169Z,79.56
2023-03-25T07:36:08.179Z,78.31
2023-03-25T07:37:08.149Z,77.45
2023-03-25T07:38:08.135Z,75.96
2023-03-25T07:39:08.130Z,75.20
2023-03-25T07:40:08.141Z,73.90
2023-03-25T07:41:08.145Z,71.89
2023-03-25T07:42:08.180Z,70.94
2023-03-25T07:43:08.166Z,69.70
2023-03-25T07:44:08.167Z,70.75
2023-03-25T07:45:08.168Z,70.46
2023-03-25T07:46:08.203Z,70.36
2023-03-25T07:47:08.192Z,69.64
2023-03-25T07:48:08.211Z,67.82
2023-03-25T07:49:08.213Z,68.26
2023-03-25T07:50:08.209Z,68.45
2023-03-25T07:51:08.211Z,69.09
2023-03-25T07:52:08.212Z,70.23
2023-03-25T07:53:08.262Z,71.00
2023-03-25T07:54:08.229Z,70.90
2023-03-25T07:55:08.235Z,71.00
2023-03-25T07:56:08.246Z,71.25
2023-03-25T07:57:08.325Z,71.44
2023-03-25T07:58:08.259Z,71.82
2023-03-25T07:59:08.259Z,71.98
2023-03-25T08:00:08.312Z,72.45
2023-03-25T08:01:08.276Z,72.64
2023-03-25T08:02:08.328Z,72.93
2023-03-25T08:03:08.346Z,73.08
2023-03-25T08:04:08.344Z,73.75
2023-03-25T08:05:08.291Z,73.37
2023-03-25T08:06:08.291Z,73.66
2023-03-25T08:07:08.280Z,73.75
2023-03-25T08:08:08.283Z,73.47
2023-03-25T08:09:08.321Z,74.13
2023-03-25T08:10:08.302Z,74.23
2023-03-25T08:11:08.351Z,74.32
2023-03-25T08:12:08.273Z,73.66
2023-03-25T08:13:08.302Z,74.13
2023-03-25T08:14:08.278Z,73.75
2023-03-25T08:15:08.302Z,73.56
2023-03-25T08:16:08.301Z,73.79
2023-03-25T08:17:08.276Z,73.22
2023-03-25T08:18:08.313Z,72.30
2023-03-25T08:19:08.347Z,71.34
2023-03-25T08:20:08.310Z,70.20
2023-03-25T08:21:08.272Z,70.29
2023-03-25T08:22:08.314Z,70.83
2023-03-25T08:23:08.285Z,70.92
2023-03-25T08:24:08.290Z,71.02
2023-03-25T08:25:08.306Z,71.50
2023-03-25T08:26:08.290Z,71.78
2023-03-25T08:27:14.859Z,72.17
2023-03-25T08:28:08.344Z,72.45
2023-03-25T08:29:08.279Z,71.88
2023-03-25T08:30:08.313Z,71.15
2023-03-25T08:31:08.337Z,70.29
2023-03-25T08:32:08.310Z,70.29
2023-03-25T08:33:08.288Z,70.87
2023-03-25T08:34:08.309Z,70.48
2023-03-25T08:35:08.320Z,69.78
2023-03-25T08:36:08.365Z,69.59
2023-03-25T08:37:08.325Z,69.87
2023-03-25T08:38:08.312Z,69.87
2023-03-25T08:39:08.330Z,70.26
2023-03-25T08:40:08.336Z,70.26
2023-03-25T08:41:08.352Z,70.26
2023-03-25T08:42:08.290Z,70.73
2023-03-25T08:43:08.303Z,70.07
2023-03-25T08:44:08.346Z,70.83
2023-03-25T08:45:08.303Z,71.21
2023-03-25T08:46:08.315Z,71.02
2023-03-25T08:47:08.305Z,70.92
2023-03-25T08:48:08.342Z,70.79
2023-03-25T08:49:08.303Z,70.98
2023-03-25T08:50:08.316Z,70.98
2023-03-25T08:51:08.314Z,71.02
2023-03-25T08:52:08.281Z,71.21
2023-03-25T08:53:08.307Z,70.51
2023-03-25T08:54:08.275Z,70.42
2023-03-25T08:55:10.373Z,70.51
2023-03-25T08:56:08.281Z,70.70
2023-03-25T08:57:08.345Z,70.98
2023-03-25T08:58:08.282Z,70.51
2023-03-25T08:59:08.291Z,70.13
2023-03-25T09:00:08.269Z,69.84
2023-03-25T09:01:08.289Z,70.03
2023-03-25T09:02:08.293Z,69.74
2023-03-25T09:03:08.311Z,69.74
2023-03-25T09:04:08.281Z,70.03
2023-03-25T09:05:08.349Z,70.22
2023-03-25T09:06:08.251Z,70.32
2023-03-25T09:07:11.884Z,70.79
2023-03-25T09:08:08.246Z,70.79
2023-03-25T09:09:08.244Z,70.98
2023-03-25T09:10:08.280Z,71.08
2023-03-25T09:11:08.256Z,70.32
2023-03-25T09:12:08.250Z,70.98
2023-03-25T09:13:08.248Z,71.14
2023-03-25T09:14:08.246Z,70.76
2023-03-25T09:15:08.254Z,71.62
2023-03-25T09:16:08.276Z,71.52
2023-03-25T09:17:08.227Z,71.75
2023-03-25T09:18:08.248Z,71.72
2023-03-25T09:19:08.238Z,71.84
2023-03-25T09:20:08.221Z,71.72
2023-03-25T09:21:08.226Z,71.37
2023-03-25T09:22:08.264Z,71.08
2023-03-25T09:23:08.205Z,70.79
2023-03-25T09:24:08.233Z,71.18
2023-03-25T09:25:08.209Z,70.70
2023-03-25T09:26:08.188Z,70.61
2023-03-25T09:27:08.188Z,71.33
2023-03-25T09:28:08.217Z,71.75
2023-03-25T09:29:08.207Z,71.56
2023-03-25T09:30:08.178Z,71.08
2023-03-25T09:31:08.232Z,70.89
2023-03-25T09:32:08.169Z,70.32
2023-03-25T09:33:08.198Z,70.03
2023-03-25T09:34:08.213Z,70.70
2023-03-25T09:35:08.178Z,71.04
2023-03-25T09:36:29.187Z,71.08
2023-03-25T09:37:08.162Z,70.95
2023-03-25T09:38:08.175Z,70.86
2023-03-25T09:39:08.169Z,70.98
2023-03-25T09:40:08.193Z,70.89
2023-03-25T09:41:09.017Z,71.08
2023-03-25T09:42:08.164Z,70.89
2023-03-25T09:43:08.148Z,70.76
2023-03-25T09:44:08.148Z,70.22
2023-03-25T09:45:11.926Z,70.86
2023-03-25T09:46:08.195Z,70.79
2023-03-25T09:47:08.150Z,70.13
2023-03-25T09:48:08.246Z,71.18
2023-03-25T09:49:08.121Z,70.79
2023-03-25T09:50:08.110Z,69.84
2023-03-25T09:52:20.343Z,69.08
2023-03-25T09:53:20.296Z,68.88
2023-03-25T09:54:20.311Z,68.79
2023-03-25T09:55:20.283Z,68.32
2023-03-25T09:56:20.296Z,68.03
2023-03-25T09:57:20.400Z,67.65
2023-03-25T09:58:20.283Z,67.58
2023-03-25T09:59:20.274Z,67.87
2023-03-25T10:00:20.279Z,67.77
2023-03-25T10:01:20.296Z,67.68
2023-03-25T10:02:20.341Z,67.30
2023-03-25T10:03:20.341Z,67.01
2023-03-25T10:04:20.259Z,66.35
2023-03-25T10:05:20.259Z,66.15
2023-03-25T10:06:20.280Z,65.77
2023-03-25T10:07:20.253Z,65.48
2023-03-25T10:08:20.247Z,65.87
2023-03-25T10:09:20.248Z,66.35
2023-03-25T10:10:20.252Z,66.25
2023-03-25T10:11:20.243Z,65.77
2023-03-25T10:12:20.264Z,65.39
2023-03-25T10:13:20.317Z,65.48
2023-03-25T10:14:20.243Z,65.10
2023-03-25T10:15:20.242Z,65.30
2023-03-25T10:16:20.278Z,65.10
2023-03-25T10:17:20.257Z,65.20
2023-03-25T10:18:20.234Z,65.07
2023-03-25T10:19:20.224Z,65.39
2023-03-25T10:20:20.229Z,65.96
2023-03-25T10:21:20.219Z,66.15
2023-03-25T10:22:20.218Z,65.77
2023-03-25T10:23:20.210Z,65.87
2023-03-25T10:24:20.208Z,64.91
2023-03-25T10:25:20.208Z,64.34
2023-03-25T10:26:20.206Z,64.81
2023-03-25T10:27:20.205Z,64.25
2023-03-25T10:28:20.194Z,64.62
2023-03-25T10:29:20.405Z,64.85
2023-03-25T10:30:20.194Z,64.94
2023-03-25T10:31:20.290Z,65.04
2023-03-25T10:32:20.189Z,64.85
2023-03-25T10:33:20.190Z,64.28
2023-03-25T10:34:20.183Z,64.18
2023-03-25T10:35:20.214Z,64.09
2023-03-25T10:36:20.185Z,64.56
2023-03-25T10:37:20.177Z,63.89
2023-03-25T10:38:20.177Z,64.28
2023-03-25T10:39:20.177Z,64.47
2023-03-25T10:40:21.694Z,64.85
2023-03-25T10:41:20.171Z,63.89
2023-03-25T10:42:20.167Z,64.37
2023-03-25T10:43:20.178Z,63.99
2023-03-25T10:44:20.165Z,63.60
2023-03-25T10:45:20.168Z,63.23
2023-03-25T10:46:20.178Z,63.32
2023-03-25T10:47:20.155Z,63.03
2023-03-25T10:48:20.144Z,63.42
2023-03-25T10:49:20.177Z,63.80
2023-03-25T10:50:20.215Z,63.70
2023-03-25T10:51:20.143Z,63.89
2023-03-25T10:52:20.143Z,63.60
2023-03-25T10:53:20.150Z,63.80
2023-03-25T10:54:20.140Z,63.80
2023-03-25T10:55:20.137Z,63.51
2023-03-25T10:56:20.129Z,63.60
2023-03-25T10:57:20.137Z,64.25
2023-03-25T10:58:20.132Z,64.28
2023-03-25T10:59:20.134Z,63.99
2023-03-25T11:00:20.219Z,63.99
2023-03-25T11:01:20.153Z,63.99
2023-03-25T11:02:20.255Z,64.18
2023-03-25T11:03:20.141Z,63.99
2023-03-25T11:04:20.157Z,63.99
2023-03-25T11:05:20.102Z,63.80
2023-03-25T11:06:20.093Z,63.42
2023-03-25T11:07:20.107Z,63.42
2023-03-25T11:08:24.896Z,64.09
2023-03-25T11:09:20.104Z,64.28
2023-03-25T11:10:20.121Z,63.51
2023-03-25T11:11:20.085Z,63.70
2023-03-25T11:12:25.132Z,64.18
2023-03-25T11:13:20.134Z,64.37
2023-03-25T11:14:20.079Z,64.37
2023-03-25T11:15:20.120Z,64.28
2023-03-25T11:16:20.132Z,64.18
2023-03-25T11:17:20.072Z,64.65
2023-03-25T11:18:20.078Z,64.18
2023-03-25T11:19:20.071Z,64.09
2023-03-25T11:20:20.120Z,64.18
2023-03-25T11:21:20.075Z,64.09
2023-03-25T11:22:20.064Z,63.80
2023-03-25T11:23:20.060Z,63.32
2023-03-25T11:24:20.056Z,63.23
2023-03-25T11:25:20.052Z,63.23
2023-03-25T11:26:20.081Z,64.09
2023-03-25T11:27:20.047Z,63.99
2023-03-25T11:28:20.039Z,63.96
2023-03-25T11:29:20.047Z,64.15
2023-03-25T11:30:20.081Z,64.15
2023-03-25T11:31:20.157Z,64.25
2023-03-25T11:32:20.044Z,64.43
2023-03-25T11:33:20.033Z,64.62
2023-03-25T11:34:20.052Z,64.75
2023-03-25T11:35:20.031Z,64.72
2023-03-25T11:36:20.034Z,64.15
2023-03-25T11:37:20.019Z,64.37
2023-03-25T11:38:20.054Z,64.28
2023-03-25T11:39:20.032Z,63.99
2023-03-25T11:40:20.035Z,64.18
2023-03-25T11:41:20.024Z,64.18
2023-03-25T11:42:20.024Z,64.09
2023-03-25T11:43:20.037Z,64.25
2023-03-25T11:44:20.036Z,64.81
2023-03-25T11:45:20.008Z,65.01
2023-03-25T11:46:20.118Z,65.30
2023-03-25T11:47:20.011Z,65.10
2023-03-25T11:48:19.983Z,65.67
2023-03-25T11:49:20.069Z,66.63
2023-03-25T11:50:19.978Z,67.58
2023-03-25T11:51:19.991Z,68.16
2023-03-25T11:52:19.992Z,69.68
2023-03-25T11:53:20.018Z,70.36
2023-03-25T11:54:20.002Z,70.26
2023-03-25T11:55:19.976Z,71.12
2023-03-25T11:56:19.969Z,71.02
2023-03-25T11:57:19.971Z,70.83
2023-03-25T11:58:19.958Z,71.21
2023-03-25T11:59:19.967Z,70.92
2023-03-25T12:00:19.966Z,71.41
2023-03-25T12:01:19.972Z,71.41
2023-03-25T12:02:19.979Z,71.50
2023-03-25T12:03:20.866Z,71.12
2023-03-25T12:04:19.951Z,70.16
2023-03-25T12:05:19.946Z,69.59
2023-03-25T12:06:19.971Z,69.31
2023-03-25T12:07:19.943Z,69.31
2023-03-25T12:08:19.944Z,69.49
2023-03-25T12:09:19.932Z,69.49
2023-03-25T12:10:19.936Z,68.92
2023-03-25T12:11:19.926Z,68.06
2023-03-25T12:12:19.916Z,67.87
2023-03-25T12:13:19.934Z,67.71
2023-03-25T12:14:19.931Z,67.33
2023-03-25T12:15:19.917Z,67.62
2023-03-25T12:16:19.947Z,67.71
2023-03-25T12:17:19.936Z,66.28
2023-03-25T12:18:19.899Z,65.61
2023-03-25T12:19:19.901Z,65.23
2023-03-25T12:20:19.904Z,65.33
2023-03-25T12:21:19.899Z,64.75
2023-03-25T12:22:19.904Z,64.94
2023-03-25T12:23:19.943Z,64.75
2023-03-25T12:24:19.910Z,64.18
2023-03-25T12:25:19.910Z,63.32
2023-03-25T12:26:19.882Z,63.42
2023-03-25T12:27:19.891Z,63.32
2023-03-25T12:28:19.895Z,63.51
2023-03-25T12:29:19.903Z,63.80
2023-03-25T12:30:19.875Z,63.70
2023-03-25T12:31:19.898Z,63.99
2023-03-25T12:32:19.879Z,63.99
2023-03-25T12:33:19.873Z,64.28
2023-03-25T12:34:19.890Z,63.89
2023-03-25T12:35:19.888Z,63.51
2023-03-25T12:36:19.888Z,63.51
2023-03-25T12:37:19.868Z,63.76
2023-03-25T12:38:19.854Z,63.89
2023-03-25T12:39:26.878Z,64.85
2023-03-25T12:40:19.850Z,64.75
2023-03-25T12:41:19.855Z,64.75
2023-03-25T12:42:19.842Z,64.75
2023-03-25T12:43:19.916Z,64.65
2023-03-25T12:44:19.889Z,64.85
2023-03-25T12:45:19.851Z,64.65
2023-03-25T12:46:19.930Z,64.75
2023-03-25T12:47:19.881Z,64.65
2023-03-25T12:48:19.885Z,64.65
2023-03-25T12:49:19.858Z,64.94
2023-03-25T12:50:22.810Z,64.75
2023-03-25T12:51:19.821Z,64.09
2023-03-25T12:52:19.816Z,63.99
2023-03-25T12:53:19.844Z,63.60